Time;durP1;ratioP1;P1;durP2;ratioP2;P2;SDS_P1;SDS_P2;PMS_P1;PMS_P2;Temp;Humidity;BMP_temperature;BMP_pressure;BME280_temperature;BME280_humidity;BME280_pressure;Samples;Min_cycle;Max_cycle;Signal;HPM_P1;HPM_P2
2022/02/24 00:00:20;;;;;;;20.80;19.15;;;;;;;;;;6191025;23;20250;-86
2022/02/24 00:02:49;;;;;;;21.45;20.10;;;;;;;;;;6190948;23;20180;-86
2022/02/24 00:05:17;;;;;;;20.80;19.35;;;;;;;;;;6216635;23;20169;-86
2022/02/24 00:07:44;;;;;;;20.43;19.13;;;;;;;;;;6217208;23;20461;-86
2022/02/24 00:10:12;;;;;;;19.80;18.70;;;;;;;;;;6217049;23;20439;-86
2022/02/24 00:12:41;;;;;;;20.73;18.77;;;;;;;;;;6217199;23;20165;-86
2022/02/24 00:15:09;;;;;;;19.95;18.55;;;;;;;;;;6216630;23;20389;-87
2022/02/24 00:17:36;;;;;;;19.92;18.70;;;;;;;;;;6216203;23;20176;-86
2022/02/24 00:20:06;;;;;;;20.73;19.33;;;;;;;;;;6190065;23;20183;-86
2022/02/24 00:22:33;;;;;;;20.83;19.70;;;;;;;;;;6216811;23;20636;-86
2022/02/24 00:25:01;;;;;;;19.30;18.20;;;;;;;;;;6190737;23;20161;-86
2022/02/24 00:27:28;;;;;;;19.77;18.55;;;;;;;;;;6216763;23;20169;-86
2022/02/24 00:29:55;;;;;;;20.75;19.55;;;;;;;;;;6216792;23;20181;-86
2022/02/24 00:32:22;;;;;;;21.60;19.92;;;;;;;;;;6216662;23;20177;-86
2022/02/24 00:34:50;;;;;;;20.60;19.30;;;;;;;;;;6216829;23;20216;-85
2022/02/24 00:37:19;;;;;;;20.65;19.40;;;;;;;;;;6216680;23;20227;-86
2022/02/24 00:39:46;;;;;;;21.10;19.80;;;;;;;;;;6216698;23;20177;-86
2022/02/24 00:42:14;;;;;;;20.85;19.30;;;;;;;;;;6216773;23;20197;-86
2022/02/24 00:44:41;;;;;;;21.40;19.90;;;;;;;;;;6215905;23;20180;-86
2022/02/24 00:47:08;;;;;;;21.00;19.52;;;;;;;;;;6216795;23;20596;-85
2022/02/24 00:49:36;;;;;;;22.52;20.38;;;;;;;;;;6216288;23;20511;-85
2022/02/24 00:52:03;;;;;;;21.90;20.30;;;;;;;;;;6216324;23;20236;-86
2022/02/24 00:54:32;;;;;;;20.80;19.50;;;;;;;;;;6189879;23;20177;-85
2022/02/24 00:57:01;;;;;;;20.30;19.20;;;;;;;;;;6216618;23;20187;-86
2022/02/24 00:59:28;;;;;;;20.48;19.35;;;;;;;;;;6189785;23;20204;-86
2022/02/24 01:01:56;;;;;;;21.43;19.93;;;;;;;;;;6216199;23;20266;-87
2022/02/24 01:04:23;;;;;;;20.05;18.70;;;;;;;;;;6216644;23;20400;-86
2022/02/24 01:06:51;;;;;;;20.35;19.25;;;;;;;;;;6216486;23;20185;-86
2022/02/24 01:09:18;;;;;;;20.58;19.30;;;;;;;;;;6216491;23;20161;-85
2022/02/24 01:11:48;;;;;;;22.30;20.63;;;;;;;;;;6190096;23;20161;-86
2022/02/24 01:14:16;;;;;;;21.65;19.48;;;;;;;;;;6215584;23;20424;-85
2022/02/24 01:16:43;;;;;;;22.42;21.02;;;;;;;;;;6216797;23;20477;-86
2022/02/24 01:19:11;;;;;;;20.90;19.55;;;;;;;;;;6216816;23;20223;-86
2022/02/24 01:21:38;;;;;;;21.15;19.75;;;;;;;;;;6216264;23;20655;-85
2022/02/24 01:24:06;;;;;;;21.92;20.42;;;;;;;;;;6216010;23;20211;-85
2022/02/24 01:26:33;;;;;;;21.13;19.92;;;;;;;;;;6190191;23;20219;-85
2022/02/24 01:29:02;;;;;;;21.33;20.05;;;;;;;;;;6215935;23;20168;-85
2022/02/24 01:31:30;;;;;;;21.75;20.35;;;;;;;;;;6191043;23;20176;-85
2022/02/24 01:33:57;;;;;;;21.77;20.35;;;;;;;;;;6216870;23;20172;-86
2022/02/24 01:36:25;;;;;;;20.50;19.30;;;;;;;;;;6216481;23;20172;-86
2022/02/24 01:38:52;;;;;;;23.38;21.55;;;;;;;;;;6216562;23;20256;-86
2022/02/24 01:41:19;;;;;;;20.20;18.90;;;;;;;;;;6216812;23;20204;-87
2022/02/24 01:43:47;;;;;;;20.23;19.10;;;;;;;;;;6216208;23;20164;-86
2022/02/24 01:46:16;;;;;;;21.92;20.27;;;;;;;;;;6216621;23;20199;-86
2022/02/24 01:48:44;;;;;;;21.10;19.70;;;;;;;;;;6216485;23;20532;-86
2022/02/24 01:51:11;;;;;;;21.85;20.17;;;;;;;;;;6216896;23;20192;-86
2022/02/24 01:53:39;;;;;;;21.55;20.15;;;;;;;;;;6216418;23;20168;-87
2022/02/24 01:56:07;;;;;;;23.00;21.27;;;;;;;;;;6216194;23;20172;-87
2022/02/24 01:58:34;;;;;;;19.95;18.90;;;;;;;;;;6216145;23;20229;-87
2022/02/24 02:01:01;;;;;;;21.85;20.55;;;;;;;;;;6203780;23;20511;-87
2022/02/24 02:03:31;;;;;;;21.20;19.90;;;;;;;;;;6216003;23;20180;-86
2022/02/24 02:05:58;;;;;;;21.05;19.70;;;;;;;;;;6216234;23;20244;-86
2022/02/24 02:08:27;;;;;;;19.55;18.52;;;;;;;;;;6216056;23;20161;-86
2022/02/24 02:10:54;;;;;;;23.08;21.33;;;;;;;;;;6190590;23;20192;-86
2022/02/24 02:13:22;;;;;;;21.33;19.85;;;;;;;;;;6218244;23;20171;-86
2022/02/24 02:15:49;;;;;;;21.25;20.05;;;;;;;;;;6218382;23;20244;-86
2022/02/24 02:18:17;;;;;;;21.67;19.67;;;;;;;;;;6191965;23;20161;-87
2022/02/24 02:20:47;;;;;;;21.15;19.95;;;;;;;;;;6218073;23;20535;-86
2022/02/24 02:23:14;;;;;;;22.60;21.00;;;;;;;;;;6217873;23;20215;-86
2022/02/24 02:25:41;;;;;;;21.90;20.35;;;;;;;;;;6218187;23;20169;-87
2022/02/24 02:28:09;;;;;;;21.80;20.30;;;;;;;;;;6218207;23;20165;-87
2022/02/24 02:30:36;;;;;;;22.00;20.25;;;;;;;;;;6191342;23;20177;-87
2022/02/24 02:33:04;;;;;;;20.95;19.75;;;;;;;;;;6217850;23;20169;-87
2022/02/24 02:35:31;;;;;;;20.95;19.55;;;;;;;;;;6218524;23;20173;-87
2022/02/24 02:38:00;;;;;;;20.23;18.92;;;;;;;;;;6191923;23;20276;-87
2022/02/24 02:40:28;;;;;;;20.45;19.20;;;;;;;;;;6217500;23;20223;-85
2022/02/24 02:42:55;;;;;;;19.65;18.55;;;;;;;;;;6217207;23;20204;-87
2022/02/24 02:45:23;;;;;;;20.75;19.55;;;;;;;;;;6218085;23;20192;-87
2022/02/24 02:47:50;;;;;;;19.95;18.80;;;;;;;;;;6218139;23;20161;-87
2022/02/24 02:50:17;;;;;;;20.83;19.70;;;;;;;;;;6218304;23;20172;-87
2022/02/24 02:52:45;;;;;;;19.83;18.73;;;;;;;;;;6217652;23;20180;-87
2022/02/24 02:55:14;;;;;;;21.70;20.30;;;;;;;;;;6218023;23;20169;-87
2022/02/24 02:57:41;;;;;;;21.13;19.95;;;;;;;;;;6217711;23;20168;-87
2022/02/24 03:00:10;;;;;;;22.27;20.65;;;;;;;;;;6217613;23;20161;-86
2022/02/24 03:02:38;;;;;;;22.23;20.92;;;;;;;;;;6217307;23;20193;-87
2022/02/24 03:05:06;;;;;;;20.73;19.52;;;;;;;;;;6217872;23;20165;-86
2022/02/24 03:07:33;;;;;;;21.40;20.00;;;;;;;;;;6217431;23;20165;-87
2022/02/24 03:10:00;;;;;;;20.30;18.83;;;;;;;;;;6217478;23;20166;-87
2022/02/24 03:12:35;;;;;;;20.67;19.35;;;;;;;;;;6190892;23;20180;-86
2022/02/24 03:15:02;;;;;;;21.05;19.85;;;;;;;;;;6217593;23;20168;-86
2022/02/24 03:17:29;;;;;;;21.42;19.92;;;;;;;;;;6217310;23;20161;-87
2022/02/24 03:19:56;;;;;;;21.25;19.75;;;;;;;;;;6217594;23;20177;-86
2022/02/24 03:22:24;;;;;;;20.65;18.95;;;;;;;;;;6217533;23;20197;-86
2022/02/24 03:24:51;;;;;;;21.38;19.45;;;;;;;;;;6216894;23;20201;-87
2022/02/24 03:27:19;;;;;;;21.27;20.00;;;;;;;;;;6217062;23;20172;-87
2022/02/24 03:29:47;;;;;;;20.85;19.55;;;;;;;;;;6217175;23;20172;-86
2022/02/24 03:32:15;;;;;;;20.58;19.27;;;;;;;;;;6217195;23;20178;-87
2022/02/24 03:34:44;;;;;;;20.95;19.65;;;;;;;;;;6217750;23;20588;-87
2022/02/24 03:37:11;;;;;;;21.20;19.75;;;;;;;;;;6217786;23;20169;-87
2022/02/24 03:39:39;;;;;;;20.45;19.25;;;;;;;;;;6190708;23;20196;-87
2022/02/24 03:42:07;;;;;;;20.52;19.15;;;;;;;;;;6217377;23;20192;-86
2022/02/24 03:44:34;;;;;;;20.65;19.35;;;;;;;;;;6217193;23;20165;-86
2022/02/24 03:47:03;;;;;;;21.67;19.98;;;;;;;;;;6217467;23;20165;-86
2022/02/24 03:49:31;;;;;;;20.40;19.05;;;;;;;;;;6216620;23;20194;-86
2022/02/24 03:51:58;;;;;;;20.23;19.13;;;;;;;;;;6217041;23;20176;-87
2022/02/24 03:54:25;;;;;;;22.17;20.15;;;;;;;;;;6217065;23;20382;-86
2022/02/24 03:56:53;;;;;;;20.95;19.50;;;;;;;;;;6190408;23;20180;-86
2022/02/24 03:59:20;;;;;;;21.25;19.50;;;;;;;;;;6217156;23;20237;-86
2022/02/24 04:01:47;;;;;;;21.00;19.80;;;;;;;;;;6217241;23;20199;-86
2022/02/24 04:04:16;;;;;;;21.80;20.20;;;;;;;;;;6217235;23;20615;-86
2022/02/24 04:06:44;;;;;;;21.83;20.20;;;;;;;;;;6217063;23;20165;-86
2022/02/24 04:09:11;;;;;;;21.60;20.00;;;;;;;;;;6191084;23;20396;-86
2022/02/24 04:11:39;;;;;;;22.40;20.60;;;;;;;;;;6190450;23;20177;-85
2022/02/24 04:14:07;;;;;;;22.17;20.52;;;;;;;;;;6216954;23;20165;-86
2022/02/24 04:16:34;;;;;;;21.67;20.17;;;;;;;;;;6216527;23;20176;-86
2022/02/24 04:19:02;;;;;;;20.48;19.27;;;;;;;;;;6216868;23;20161;-86
2022/02/24 04:21:31;;;;;;;21.33;19.73;;;;;;;;;;6216399;23;20184;-86
2022/02/24 04:23:58;;;;;;;21.73;19.80;;;;;;;;;;6216334;23;20450;-86
2022/02/24 04:26:26;;;;;;;20.55;19.17;;;;;;;;;;6216952;23;20169;-86
2022/02/24 04:28:53;;;;;;;21.65;20.13;;;;;;;;;;6189946;23;20193;-85
2022/02/24 04:31:20;;;;;;;20.40;19.05;;;;;;;;;;6216446;23;20223;-86
2022/02/24 04:33:48;;;;;;;22.20;20.42;;;;;;;;;;6216037;23;20165;-86
2022/02/24 04:36:15;;;;;;;25.52;23.05;;;;;;;;;;6216743;23;20265;-85
2022/02/24 04:38:44;;;;;;;22.75;20.85;;;;;;;;;;6190058;23;20547;-86
2022/02/24 04:41:11;;;;;;;20.85;19.55;;;;;;;;;;6216737;23;20164;-85
2022/02/24 04:43:39;;;;;;;20.35;19.15;;;;;;;;;;6216460;23;20192;-86
2022/02/24 04:46:06;;;;;;;20.15;19.05;;;;;;;;;;6216275;23;20197;-86
2022/02/24 04:48:33;;;;;;;20.55;19.08;;;;;;;;;;6216065;23;20183;-86
2022/02/24 04:51:01;;;;;;;21.08;19.58;;;;;;;;;;6216649;23;20169;-86
2022/02/24 04:53:28;;;;;;;21.20;19.50;;;;;;;;;;6216181;23;20180;-86
2022/02/24 04:55:57;;;;;;;22.08;20.27;;;;;;;;;;6216287;23;20195;-86
2022/02/24 04:58:24;;;;;;;21.48;19.98;;;;;;;;;;6216404;23;20226;-86
2022/02/24 05:00:52;;;;;;;21.85;20.27;;;;;;;;;;6216096;23;20180;-85
2022/02/24 05:03:19;;;;;;;21.15;19.73;;;;;;;;;;6216105;23;20192;-85
2022/02/24 05:05:46;;;;;;;21.20;19.35;;;;;;;;;;6216191;23;20165;-86
2022/02/24 05:08:14;;;;;;;20.90;19.50;;;;;;;;;;6216069;23;20165;-86
2022/02/24 05:10:41;;;;;;;20.63;19.30;;;;;;;;;;6215835;23;20423;-86
2022/02/24 05:13:10;;;;;;;20.58;19.42;;;;;;;;;;6216844;23;20171;-86
2022/02/24 05:15:37;;;;;;;21.20;19.85;;;;;;;;;;6216130;23;20542;-86
2022/02/24 05:18:05;;;;;;;21.38;19.85;;;;;;;;;;6216412;23;20227;-85
2022/02/24 05:20:32;;;;;;;21.87;20.33;;;;;;;;;;6216051;23;20251;-86
2022/02/24 05:22:59;;;;;;;21.42;20.08;;;;;;;;;;6215537;23;20438;-86
2022/02/24 05:25:27;;;;;;;22.05;20.55;;;;;;;;;;6216257;23;20168;-84
2022/02/24 05:27:54;;;;;;;22.15;20.52;;;;;;;;;;6215751;23;20188;-86
2022/02/24 05:30:23;;;;;;;22.65;20.88;;;;;;;;;;6216154;23;20169;-86
2022/02/24 05:32:51;;;;;;;21.60;20.05;;;;;;;;;;6215475;23;20196;-86
2022/02/24 05:35:18;;;;;;;21.83;20.42;;;;;;;;;;6215874;23;20223;-85
2022/02/24 05:37:45;;;;;;;21.17;19.60;;;;;;;;;;6215809;23;20630;-86
2022/02/24 05:40:13;;;;;;;21.40;19.80;;;;;;;;;;6215984;23;20164;-86
2022/02/24 05:42:41;;;;;;;19.77;18.75;;;;;;;;;;6216013;23;20200;-86
2022/02/24 05:45:09;;;;;;;21.92;20.08;;;;;;;;;;6217956;23;20193;-85
2022/02/24 05:47:38;;;;;;;21.25;19.85;;;;;;;;;;6219317;23;20161;-86
2022/02/24 05:50:07;;;;;;;22.60;21.13;;;;;;;;;;6219385;23;20172;-84
2022/02/24 05:52:35;;;;;;;23.85;22.05;;;;;;;;;;6219708;23;20244;-86
2022/02/24 05:55:02;;;;;;;22.17;20.73;;;;;;;;;;6219206;23;20196;-86
2022/02/24 05:57:29;;;;;;;23.85;21.75;;;;;;;;;;6219615;23;20516;-86
2022/02/24 05:59:57;;;;;;;20.88;19.70;;;;;;;;;;6219030;23;20231;-86
2022/02/24 06:02:24;;;;;;;22.27;20.48;;;;;;;;;;6219173;23;20188;-85
2022/02/24 06:04:54;;;;;;;22.00;20.30;;;;;;;;;;6219453;23;20164;-86
2022/02/24 06:07:21;;;;;;;21.50;20.10;;;;;;;;;;6219673;23;20164;-86
2022/02/24 06:09:48;;;;;;;21.45;20.05;;;;;;;;;;6219387;23;20169;-85
2022/02/24 06:12:16;;;;;;;22.95;20.77;;;;;;;;;;6219309;23;20165;-86
2022/02/24 06:14:43;;;;;;;22.63;20.70;;;;;;;;;;6193523;23;20172;-85
2022/02/24 06:17:11;;;;;;;22.10;20.55;;;;;;;;;;6219500;23;20161;-85
2022/02/24 06:19:39;;;;;;;22.83;21.23;;;;;;;;;;6219619;23;20211;-86
2022/02/24 06:22:08;;;;;;;21.60;20.20;;;;;;;;;;6192432;23;20235;-86
2022/02/24 06:24:35;;;;;;;21.83;20.33;;;;;;;;;;6218773;23;20240;-86
2022/02/24 06:27:03;;;;;;;22.13;20.52;;;;;;;;;;6219315;23;20161;-85
2022/02/24 06:29:30;;;;;;;22.15;20.38;;;;;;;;;;6218944;23;20674;-86
2022/02/24 06:31:58;;;;;;;22.23;20.80;;;;;;;;;;6219377;23;20165;-86
2022/02/24 06:34:25;;;;;;;22.08;20.33;;;;;;;;;;6219195;23;20215;-86
2022/02/24 06:36:52;;;;;;;21.98;20.45;;;;;;;;;;6219395;23;20181;-85
2022/02/24 06:39:21;;;;;;;22.63;21.13;;;;;;;;;;6219196;23;20164;-86
2022/02/24 06:41:48;;;;;;;22.67;21.08;;;;;;;;;;6219350;23;20383;-87
2022/02/24 06:44:16;;;;;;;21.87;20.47;;;;;;;;;;6218814;23;20562;-86
2022/02/24 06:46:44;;;;;;;22.47;20.60;;;;;;;;;;6219340;23;20385;-86
2022/02/24 06:49:12;;;;;;;22.63;20.77;;;;;;;;;;6218949;23;20878;-86
2022/02/24 06:51:39;;;;;;;23.50;21.40;;;;;;;;;;6219176;23;20161;-87
2022/02/24 06:54:07;;;;;;;22.35;20.75;;;;;;;;;;6219322;23;20166;-86
2022/02/24 06:56:36;;;;;;;21.90;20.48;;;;;;;;;;6217947;23;20161;-85
2022/02/24 06:59:03;;;;;;;21.67;20.38;;;;;;;;;;6218065;23;20168;-86
2022/02/24 07:01:31;;;;;;;23.45;21.45;;;;;;;;;;6217896;23;20165;-87
2022/02/24 07:03:58;;;;;;;22.00;20.42;;;;;;;;;;6217741;23;20195;-85
2022/02/24 07:06:26;;;;;;;22.80;21.10;;;;;;;;;;6217850;23;20161;-86
2022/02/24 07:08:53;;;;;;;21.85;20.25;;;;;;;;;;6217318;23;20686;-85
2022/02/24 07:11:21;;;;;;;23.13;21.10;;;;;;;;;;6217236;23;20654;-85
2022/02/24 07:13:50;;;;;;;21.77;20.25;;;;;;;;;;6217495;23;20168;-86
2022/02/24 07:16:17;;;;;;;22.02;20.40;;;;;;;;;;6217238;23;20173;-84
2022/02/24 07:18:44;;;;;;;22.65;20.73;;;;;;;;;;6217404;23;20604;-86
2022/02/24 07:21:12;;;;;;;21.13;19.38;;;;;;;;;;6217325;23;20223;-85
2022/02/24 07:23:39;;;;;;;21.95;20.40;;;;;;;;;;6217046;23;20232;-86
2022/02/24 07:26:07;;;;;;;22.00;20.27;;;;;;;;;;6217264;23;20192;-86
2022/02/24 07:28:36;;;;;;;22.48;20.88;;;;;;;;;;6190733;23;20547;-85
2022/02/24 07:31:05;;;;;;;23.10;20.65;;;;;;;;;;6216828;23;20204;-86
2022/02/24 07:33:32;;;;;;;22.57;20.70;;;;;;;;;;6217225;23;20207;-86
2022/02/24 07:36:00;;;;;;;22.00;20.10;;;;;;;;;;6217081;23;20391;-86
2022/02/24 07:38:27;;;;;;;22.15;20.35;;;;;;;;;;6217013;23;20165;-85
2022/02/24 07:40:54;;;;;;;20.83;19.20;;;;;;;;;;6217018;23;20165;-91
2022/02/24 07:43:22;;;;;;;23.73;21.40;;;;;;;;;;6217491;23;20188;-86
2022/02/24 07:45:49;;;;;;;22.33;20.50;;;;;;;;;;6191135;23;20651;-86
2022/02/24 07:48:18;;;;;;;20.70;19.30;;;;;;;;;;6217273;23;20223;-86
2022/02/24 07:50:45;;;;;;;20.65;19.35;;;;;;;;;;6217292;23;20169;-86
2022/02/24 07:53:12;;;;;;;21.95;20.30;;;;;;;;;;6217795;23;20538;-86
2022/02/24 07:55:41;;;;;;;23.00;21.17;;;;;;;;;;6216867;23;20165;-86
2022/02/24 07:58:10;;;;;;;21.45;20.02;;;;;;;;;;6217270;23;20488;-85
2022/02/24 08:00:38;;;;;;;21.02;19.70;;;;;;;;;;6217127;23;20168;-87
2022/02/24 08:03:05;;;;;;;23.90;22.40;;;;;;;;;;6216835;23;20216;-86
2022/02/24 08:05:34;;;;;;;22.05;20.65;;;;;;;;;;6216960;23;20248;-87
2022/02/24 08:08:01;;;;;;;23.30;21.45;;;;;;;;;;6217195;23;20211;-87
2022/02/24 08:10:30;;;;;;;22.73;21.02;;;;;;;;;;6217438;23;20169;-87
2022/02/24 08:12:57;;;;;;;22.80;21.25;;;;;;;;;;6216228;23;20207;-93
2022/02/24 08:15:25;;;;;;;22.02;20.63;;;;;;;;;;6216501;23;20176;-93
2022/02/24 08:17:53;;;;;;;22.80;20.80;;;;;;;;;;6216435;23;20180;-86
2022/02/24 08:20:20;;;;;;;22.10;20.70;;;;;;;;;;6216489;23;20410;-87
2022/02/24 08:22:49;;;;;;;23.30;21.60;;;;;;;;;;6216233;23;20172;-87
2022/02/24 08:25:18;;;;;;;22.10;20.70;;;;;;;;;;6216616;23;20573;-88
2022/02/24 08:27:46;;;;;;;21.73;20.27;;;;;;;;;;6216637;23;20162;-86
2022/02/24 08:30:16;;;;;;;21.30;19.90;;;;;;;;;;6216840;23;20464;-88
2022/02/24 08:32:45;;;;;;;22.00;20.60;;;;;;;;;;6216370;23;20395;-88
2022/02/24 08:35:13;;;;;;;22.92;21.20;;;;;;;;;;6216199;23;20172;-88
2022/02/24 08:37:41;;;;;;;22.70;20.55;;;;;;;;;;6216719;23;20172;-89
2022/02/24 08:40:11;;;;;;;20.88;19.58;;;;;;;;;;6216867;23;20199;-88
2022/02/24 08:42:38;;;;;;;23.33;21.55;;;;;;;;;;6216554;23;20177;-88
2022/02/24 08:45:06;;;;;;;20.80;19.50;;;;;;;;;;6216773;23;20200;-88
2022/02/24 08:47:33;;;;;;;22.13;20.60;;;;;;;;;;6216928;23;20389;-88
2022/02/24 08:50:01;;;;;;;23.37;21.37;;;;;;;;;;6204560;23;20439;-86
2022/02/24 08:52:29;;;;;;;21.58;20.13;;;;;;;;;;6216656;23;20393;-87
2022/02/24 08:54:56;;;;;;;19.93;18.73;;;;;;;;;;6190427;23;20184;-87
2022/02/24 08:57:25;;;;;;;21.30;19.90;;;;;;;;;;6217165;23;20417;-88
2022/02/24 08:59:52;;;;;;;21.97;20.47;;;;;;;;;;6217026;23;20403;-87
2022/02/24 09:02:20;;;;;;;21.70;20.40;;;;;;;;;;6216166;23;20416;-88
2022/02/24 09:04:48;;;;;;;20.90;19.60;;;;;;;;;;6216581;23;20448;-87
2022/02/24 09:07:15;;;;;;;21.70;20.13;;;;;;;;;;6215886;23;20173;-86
2022/02/24 09:09:43;;;;;;;21.98;20.52;;;;;;;;;;6216638;23;20181;-90
2022/02/24 09:12:11;;;;;;;21.80;20.53;;;;;;;;;;6215884;23;20173;-89
2022/02/24 09:14:39;;;;;;;21.80;19.87;;;;;;;;;;6216476;23;20723;-89
2022/02/24 09:17:07;;;;;;;20.50;19.40;;;;;;;;;;6216398;23;20419;-89
2022/02/24 09:19:35;;;;;;;20.73;19.50;;;;;;;;;;6216312;23;20857;-89
2022/02/24 09:22:03;;;;;;;20.90;19.55;;;;;;;;;;6216595;23;20180;-89
2022/02/24 09:24:30;;;;;;;20.17;18.87;;;;;;;;;;6215730;23;20732;-90
2022/02/24 09:26:58;;;;;;;21.70;20.25;;;;;;;;;;6216425;23;20469;-90
2022/02/24 09:29:25;;;;;;;20.60;19.25;;;;;;;;;;6216015;23;20169;-90
2022/02/24 09:31:54;;;;;;;21.70;20.07;;;;;;;;;;6216542;23;20527;-90
2022/02/24 09:34:21;;;;;;;21.47;20.17;;;;;;;;;;6188979;23;20437;-84
2022/02/24 09:36:49;;;;;;;20.65;19.38;;;;;;;;;;6215913;23;20396;-89
2022/02/24 09:39:16;;;;;;;21.43;19.90;;;;;;;;;;6217658;23;20169;-91
2022/02/24 09:41:45;;;;;;;20.80;19.40;;;;;;;;;;6216610;23;20386;-91
2022/02/24 09:44:13;;;;;;;20.93;19.50;;;;;;;;;;6216962;23;20465;-89
2022/02/24 09:46:41;;;;;;;24.07;20.30;;;;;;;;;;6215879;23;20424;-90
2022/02/24 09:49:11;;;;;;;22.00;20.40;;;;;;;;;;6189989;23;20381;-91
2022/02/24 09:51:43;;;;;;;21.17;19.77;;;;;;;;;;6195543;23;20429;-96
2022/02/24 09:54:12;;;;;;;21.40;19.90;;;;;;;;;;6217577;23;20410;-90
2022/02/24 09:56:42;;;;;;;21.57;20.10;;;;;;;;;;6217464;23;20897;-92
2022/02/24 09:59:12;;;;;;;20.30;19.00;;;;;;;;;;6216314;23;20404;-89
2022/02/24 10:01:40;;;;;;;20.47;19.27;;;;;;;;;;6216151;23;20427;-89
2022/02/24 10:04:09;;;;;;;20.43;19.13;;;;;;;;;;6216594;23;20854;-90
2022/02/24 10:06:39;;;;;;;19.47;18.37;;;;;;;;;;6216145;23;20417;-88
2022/02/24 10:09:07;;;;;;;20.47;18.77;;;;;;;;;;6218509;23;20449;-93
2022/02/24 10:11:35;;;;;;;21.57;20.20;;;;;;;;;;6216274;23;20386;-87
2022/02/24 10:14:04;;;;;;;21.13;19.70;;;;;;;;;;6216299;23;20431;-87
2022/02/24 10:16:32;;;;;;;20.23;19.03;;;;;;;;;;6215437;23;20482;-88
2022/02/24 10:19:11;;;;;;;20.40;19.20;;;;;;;;;;6216532;23;20499;-87
2022/02/24 10:21:41;;;;;;;20.57;19.30;;;;;;;;;;6189725;23;20444;-87
2022/02/24 10:24:23;;;;;;;26.93;20.57;;;;;;;;;;6216241;23;20438;-88
2022/02/24 10:26:51;;;;;;;21.60;19.80;;;;;;;;;;6189545;23;20997;-88
2022/02/24 10:29:22;;;;;;;21.33;19.93;;;;;;;;;;6216038;23;20527;-88
2022/02/24 10:31:50;;;;;;;20.83;19.40;;;;;;;;;;6217170;23;20408;-88
2022/02/24 10:34:19;;;;;;;22.13;19.93;;;;;;;;;;6191963;23;20870;-88
2022/02/24 10:36:48;;;;;;;20.57;19.47;;;;;;;;;;6217745;23;20469;-88
2022/02/24 10:39:17;;;;;;;22.40;21.10;;;;;;;;;;6217946;23;20416;-88
2022/02/24 10:41:46;;;;;;;20.27;19.20;;;;;;;;;;6217284;23;20398;-88
2022/02/24 10:44:18;;;;;;;20.67;19.47;;;;;;;;;;6217308;23;20510;-87
2022/02/24 10:46:47;;;;;;;20.30;19.20;;;;;;;;;;6217638;23;20397;-88
2022/02/24 10:49:27;;;;;;;20.50;19.30;;;;;;;;;;6218098;23;20390;-90
2022/02/24 10:54:58;;;;;;;20.40;19.20;;;;;;;;;;5088440;27;1879216;-86
2022/02/24 10:57:27;;;;;;;20.10;18.90;;;;;;;;;;5132828;28;20250;-87
2022/02/24 10:59:54;;;;;;;21.27;19.80;;;;;;;;;;5132381;28;20446;-88
2022/02/24 11:02:23;;;;;;;20.47;19.27;;;;;;;;;;5132191;28;20485;-89
2022/02/24 11:04:51;;;;;;;21.13;19.93;;;;;;;;;;5132407;28;20782;-88
2022/02/24 11:07:19;;;;;;;21.10;19.77;;;;;;;;;;5132429;28;20497;-88
2022/02/24 11:09:48;;;;;;;21.60;20.13;;;;;;;;;;5133196;28;20414;-88
2022/02/24 11:12:16;;;;;;;22.03;20.50;;;;;;;;;;5132331;28;20452;-90
2022/02/24 11:14:46;;;;;;;21.10;19.90;;;;;;;;;;5131720;28;20467;-90
2022/02/24 11:17:14;;;;;;;22.00;20.50;;;;;;;;;;5131930;28;20529;-87
2022/02/24 11:19:43;;;;;;;22.30;20.90;;;;;;;;;;5132094;28;20448;-87
2022/02/24 11:22:11;;;;;;;22.80;20.70;;;;;;;;;;5132316;28;20606;-86
2022/02/24 11:24:39;;;;;;;20.90;19.70;;;;;;;;;;5113626;28;20444;-87
2022/02/24 11:27:12;;;;;;;21.07;19.77;;;;;;;;;;5131966;28;20816;-89
2022/02/24 11:29:44;;;;;;;22.00;20.47;;;;;;;;;;5132612;28;20447;-93
2022/02/24 11:32:13;;;;;;;27.47;22.93;;;;;;;;;;5132792;28;20444;-92
2022/02/24 11:34:54;;;;;;;21.80;20.47;;;;;;;;;;5131699;28;20471;-88
2022/02/24 11:37:22;;;;;;;21.67;20.10;;;;;;;;;;5113672;28;20419;-88
2022/02/24 11:39:50;;;;;;;21.27;19.83;;;;;;;;;;5132290;28;20411;-87
2022/02/24 11:42:25;;;;;;;20.80;19.70;;;;;;;;;;5130586;28;20209;-87
2022/02/24 11:44:53;;;;;;;21.57;20.37;;;;;;;;;;5131265;28;20454;-88
2022/02/24 11:47:22;;;;;;;18.97;17.90;;;;;;;;;;5131662;28;20485;-90
2022/02/24 11:50:08;;;;;;;19.87;18.70;;;;;;;;;;5131570;28;20430;-88
2022/02/24 11:52:46;;;;;;;19.97;18.70;;;;;;;;;;5131236;28;20936;-92
2022/02/24 11:55:28;;;;;;;19.77;18.77;;;;;;;;;;5112364;28;20524;-89
2022/02/24 11:57:57;;;;;;;20.20;19.00;;;;;;;;;;5130892;28;20430;-92
2022/02/24 12:00:24;;;;;;;20.13;18.90;;;;;;;;;;5113248;28;20821;-87
2022/02/24 12:02:52;;;;;;;20.40;19.00;;;;;;;;;;5131388;28;20432;-88
2022/02/24 12:05:20;;;;;;;20.15;19.05;;;;;;;;;;5122626;28;20407;-91
2022/02/24 12:08:03;;;;;;;20.67;18.80;;;;;;;;;;5117823;28;20187;-90
2022/02/24 12:10:41;;;;;;;21.93;20.63;;;;;;;;;;5117808;28;20434;-90
2022/02/24 12:13:27;;;;;;;23.40;21.70;;;;;;;;;;5122025;28;20459;-91
2022/02/24 12:16:09;;;;;;;19.00;18.00;;;;;;;;;;5112097;28;20427;-90
2022/02/24 12:18:39;;;;;;;21.77;20.13;;;;;;;;;;5121632;28;20452;-90
2022/02/24 12:21:21;;;;;;;21.13;19.83;;;;;;;;;;5122119;28;20412;-90
2022/02/24 12:23:49;;;;;;;19.80;18.63;;;;;;;;;;5120930;28;20199;-90
2022/02/24 12:26:18;;;;;;;20.35;19.25;;;;;;;;;;5123333;28;20520;-91
2022/02/24 12:28:45;;;;;;;21.13;19.63;;;;;;;;;;5104469;28;20560;-91
2022/02/24 12:31:20;;;;;;;21.45;19.75;;;;;;;;;;5123115;28;20191;-89
2022/02/24 12:33:49;;;;;;;22.50;21.23;;;;;;;;;;5104637;28;20234;-90
2022/02/24 12:36:16;;;;;;;20.70;19.20;;;;;;;;;;5123700;28;20448;-92
2022/02/24 12:38:44;;;;;;;20.70;19.30;;;;;;;;;;5123910;28;20434;-89
2022/02/24 12:41:11;;;;;;;20.67;19.25;;;;;;;;;;5119625;28;20205;-88
2022/02/24 12:43:44;;;;;;;20.53;19.20;;;;;;;;;;5118841;28;20191;-88
2022/02/24 12:46:13;;;;;;;20.43;18.80;;;;;;;;;;5118848;28;20447;-87
2022/02/24 12:48:41;;;;;;;20.50;18.95;;;;;;;;;;5099400;28;20415;-88
2022/02/24 12:51:11;;;;;;;20.45;19.15;;;;;;;;;;5116844;28;20202;-88
2022/02/24 12:53:41;;;;;;;20.27;19.02;;;;;;;;;;5116048;28;20245;-87
2022/02/24 12:56:09;;;;;;;19.80;18.50;;;;;;;;;;5116329;28;20198;-88
2022/02/24 12:58:36;;;;;;;21.50;19.87;;;;;;;;;;5116602;28;20415;-87
2022/02/24 13:01:04;;;;;;;19.50;18.47;;;;;;;;;;5116991;28;20892;-87
2022/02/24 13:03:31;;;;;;;20.20;18.90;;;;;;;;;;5115785;28;20457;-92
2022/02/24 13:05:59;;;;;;;18.67;17.67;;;;;;;;;;5116539;28;20453;-87
2022/02/24 13:11:16;;;;;;;19.43;18.23;;;;;;;;;;5116288;28;20967;-89
2022/02/24 13:13:43;;;;;;;19.47;17.97;;;;;;;;;;5116221;28;20477;-88
2022/02/24 13:16:12;;;;;;;19.77;18.40;;;;;;;;;;5116173;28;20441;-90
2022/02/24 13:18:40;;;;;;;19.87;18.63;;;;;;;;;;5116376;28;20412;-90
2022/02/24 13:21:08;;;;;;;20.43;18.43;;;;;;;;;;5116344;28;20794;-89
2022/02/24 13:23:37;;;;;;;19.90;18.50;;;;;;;;;;5116187;28;20415;-89
2022/02/24 13:26:05;;;;;;;19.83;18.73;;;;;;;;;;5116383;28;20412;-85
2022/02/24 13:28:33;;;;;;;18.53;17.33;;;;;;;;;;5115182;28;20521;-88
2022/02/24 13:31:02;;;;;;;20.40;18.97;;;;;;;;;;5116358;28;20419;-86
2022/02/24 13:33:30;;;;;;;20.83;19.53;;;;;;;;;;5115897;28;20455;-86
2022/02/24 13:35:58;;;;;;;20.17;18.80;;;;;;;;;;5116234;28;20952;-91
2022/02/24 13:38:32;;;;;;;18.93;17.90;;;;;;;;;;5115508;28;20456;-88
2022/02/24 13:41:02;;;;;;;19.80;18.60;;;;;;;;;;5115855;28;20476;-88
2022/02/24 13:43:29;;;;;;;19.83;18.73;;;;;;;;;;5114954;28;20444;-88
2022/02/24 13:45:56;;;;;;;20.80;19.40;;;;;;;;;;5115353;28;20414;-87
2022/02/24 13:48:25;;;;;;;19.67;18.40;;;;;;;;;;5115422;28;20437;-88
2022/02/24 13:50:56;;;;;;;20.63;19.37;;;;;;;;;;5115452;28;20540;-89
2022/02/24 13:53:24;;;;;;;21.30;20.00;;;;;;;;;;5115239;28;20936;-91
2022/02/24 13:55:55;;;;;;;19.20;18.00;;;;;;;;;;5115082;28;20424;-91
2022/02/24 13:58:28;;;;;;;20.70;19.30;;;;;;;;;;5115552;28;20435;-92
2022/02/24 14:00:56;;;;;;;21.37;20.03;;;;;;;;;;5115333;28;20433;-89
2022/02/24 14:03:30;;;;;;;21.50;20.10;;;;;;;;;;5115421;28;20446;-92
2022/02/24 14:06:02;;;;;;;20.07;18.70;;;;;;;;;;5115145;28;20465;-93
2022/02/24 14:08:30;;;;;;;22.93;20.77;;;;;;;;;;5115428;28;20516;-93
2022/02/24 14:11:11;;;;;;;21.00;19.60;;;;;;;;;;5114880;28;20945;-93
2022/02/24 14:13:40;;;;;;;19.47;18.37;;;;;;;;;;5115148;28;20452;-92
2022/02/24 14:16:08;;;;;;;20.63;19.43;;;;;;;;;;5115246;28;20494;-94
2022/02/24 14:18:35;;;;;;;20.80;19.60;;;;;;;;;;5115502;28;20440;-92
2022/02/24 14:21:03;;;;;;;21.97;20.03;;;;;;;;;;5115013;28;20441;-92
2022/02/24 14:23:30;;;;;;;20.40;19.20;;;;;;;;;;5115071;28;20419;-93
2022/02/24 14:25:58;;;;;;;21.30;20.00;;;;;;;;;;5114947;28;20415;-91
2022/02/24 14:28:25;;;;;;;20.07;18.97;;;;;;;;;;5114598;28;20418;-89